• Join FlightAware (Why Join?)
  • Login
  • US Flag 
06:47AM EDT


 

Airport Tracker/Info


-or-


 

Live Flight TrackerFlight Track Log ✈ SWA1021 ✈ 07-Jul-2013 ✈ KBWI - KSAT

Flight Track Log - Related Links

Times and Time Zones

All times are in EDT time to prevent confusion due to time zone crossing. See the SWA1021 flight status page for this flight to view local times or setup timezone preferences in your user account.

Time Position Orientation Groundspeed Altitude Reporting Facility
EDT Latitude Longitude Course Direction KTS MPH feet Rate Location/Type
01:42PM 39.1833 -76.7333 280° West 176 203 1,500  Level Potomac TRACON
01:44PM 39.2025 -76.8744 280° West 215 247 5,400 2,340 Climbing Washington Center
01:45PM 39.2119 -76.9686 277° West 244 281 8,700 2,760 Climbing Washington Center
01:46PM 39.2128 -77.0703 271° West 267 307 10,900 2,280 Climbing Washington Center
01:47PM 39.1864 -77.1822 253° West 295 339 13,300 2,460 Climbing Washington Center
01:48PM 39.1042 -77.2500 213° Southwest 305 351 16,000 2,520 Climbing Washington Center
01:49PM 39.0175 -77.3256 214° Southwest 349 402 18,300 2,280 Climbing Washington Center
01:50PM 38.9825 -77.4503 250° West 362 417 20,500 2,160 Climbing Washington Center
01:51PM 38.9569 -77.6044 258° West 375 432 22,800 1,860 Climbing Washington Center
01:52PM 38.9339 -77.7319 257° West 396 456 24,300 1,440 Climbing Washington Center
01:53PM 38.9106 -77.8778 258° West 412 474 25,700 1,440 Climbing Washington Center
01:54PM 38.8800 -78.0503 257° West 437 503 27,200 1,260 Climbing Washington Center
01:55PM 38.8558 -78.2067 259° West 443 510 28,300 1,200 Climbing Washington Center
01:56PM 38.8522 -78.3692 268° West 448 516 29,700 1,560 Climbing Washington Center
01:57PM 38.8503 -78.5317 269° West 454 522 31,400 1,680 Climbing Washington Center
01:58PM 38.8486 -78.6889 269° West 459 528 33,100 1,260 Climbing Washington Center
01:59PM 38.8464 -78.8489 269° West 454 522 34,000 420 Climbing Washington Center
02:00PM 38.8442 -79.0086 269° West 454 522 34,000  Level Washington Center
02:01PM 38.8394 -79.1683 268° West 454 522 34,000 360 Level Washington Center
02:02PM 38.8181 -79.3219 260° West 454 522 34,800 960 Climbing Washington Center
02:03PM 38.7922 -79.4750 258° West 448 516 36,000 600 Climbing Washington Center
02:04PM 38.7664 -79.6308 258° West 448 516 36,000  Level Washington Center
02:05PM 38.7383 -79.7811 257° West 448 516 36,000  Level Washington Center
02:06PM 38.7125 -79.9178 256° West 448 516 36,000  Level Washington Center
02:07PM 38.6839 -80.0706 257° West 448 516 36,000  Level Washington Center
02:08PM 38.6553 -80.2203 256° West 443 510 36,000  Level Washington Center
02:09PM 38.6261 -80.3833 257° West 443 510 36,000  Level Washington Center
02:11PM 38.5867 -80.5739 255° West 430 495 36,000  Level Indianapolis Center
02:12PM 38.5511 -80.7511 256° West 427 491 36,000  Level Indianapolis Center
02:13PM 38.5131 -80.8931 251° West 423 487 36,000  Level Indianapolis Center
02:14PM 38.4767 -81.0356 252° West 420 483 36,000  Level Indianapolis Center
02:15PM 38.4394 -81.1769 251° West 419 482 36,000 180 Level Indianapolis Center
02:16PM 38.4033 -81.3194 252° West 418 481 36,400 660 Climbing Indianapolis Center
02:17PM 38.3656 -81.4611 251° West 418 481 37,400 780 Climbing Indianapolis Center
02:18PM 38.3283 -81.6033 252° West 419 482 38,000 240 Climbing Indianapolis Center
02:19PM 38.2906 -81.7450 251° West 419 482 38,000  Level Indianapolis Center
02:20PM 38.2447 -81.8772 246° West 409 471 38,000  Level Indianapolis Center
02:21PM 38.1933 -82.0064 243° Southwest 409 471 38,000  Level Indianapolis Center
02:22PM 38.1414 -82.1672 248° West 411 473 38,000  Level Indianapolis Center
02:23PM 38.1064 -82.3083 253° West 416 479 38,000  Level Indianapolis Center
02:24PM 38.0722 -82.4408 252° West 408 470 38,000  Level Indianapolis Center
02:25PM 38.0353 -82.5761 251° West 407 468 38,000  Level Indianapolis Center
02:26PM 38.0000 -82.7111 252° West 403 464 38,000  Level Indianapolis Center
02:27PM 37.9592 -82.8606 251° West 387 445 38,000  Level Indianapolis Center
02:28PM 37.9250 -82.9911 252° West 387 445 38,000  Level Indianapolis Center
02:29PM 37.8903 -83.1178 251° West 384 442 38,000  Level Indianapolis Center
02:30PM 37.8553 -83.2469 251° West 388 447 38,000  Level Indianapolis Center
02:31PM 37.8189 -83.3786 251° West 394 453 38,000  Level Indianapolis Center
02:32PM 37.7775 -83.5308 251° West 394 453 38,000  Level Indianapolis Center
02:33PM 37.7408 -83.6608 250° West 393 452 38,000  Level Indianapolis Center
02:34PM 37.7036 -83.7944 251° West 400 460 38,000  Level Indianapolis Center
02:35PM 37.6675 -83.9272 251° West 401 461 38,000  Level Indianapolis Center
02:36PM 37.6306 -84.0619 251° West 405 466 38,000  Level Indianapolis Center
02:37PM 37.5908 -84.1961 250° West 407 468 38,000  Level Indianapolis Center
02:38PM 37.5472 -84.3525 251° West 406 467 38,000  Level Indianapolis Center
02:39PM 37.5097 -84.4844 250° West 403 464 38,000  Level Indianapolis Center
02:41PM 37.4700 -84.6186 250° West 408 470 38,000  Level Indianapolis Center
02:42PM 37.4306 -84.7506 249° West 406 467 38,000  Level Indianapolis Center
02:43PM 37.3753 -84.8764 241° Southwest 412 474 38,000  Level Indianapolis Center
02:44PM 37.3114 -85.0233 241° Southwest 413 475 38,000  Level Indianapolis Center
02:45PM 37.2569 -85.1506 242° Southwest 415 478 38,000  Level Indianapolis Center
02:46PM 37.2022 -85.2767 241° Southwest 414 476 38,000  Level Indianapolis Center
02:47PM 37.1489 -85.4033 242° Southwest 412 474 38,000  Level Indianapolis Center
02:48PM 37.0944 -85.5267 241° Southwest 408 470 38,000  Level Indianapolis Center
02:49PM 37.0378 -85.6547 241° Southwest 416 479 38,000  Level Indianapolis Center
02:50PM 36.9722 -85.8044 241° Southwest 417 480 38,000  Level Indianapolis Center
02:51PM 36.9156 -85.9344 241° Southwest 420 483 38,000  Level Indianapolis Center
02:52PM 36.8589 -86.0631 241° Southwest 420 483 38,000  Level Indianapolis Center
02:53PM 36.8008 -86.1919 241° Southwest 422 486 38,000  Level Indianapolis Center
02:54PM 36.7444 -86.3186 241° Southwest 417 480 38,000  Level Indianapolis Center
02:55PM 36.6889 -86.4472 242° Southwest 423 487 38,000  Level Memphis Center
02:56PM 36.6322 -86.5714 240° Southwest 423 487 38,000  Level Memphis Center
02:57PM 36.5756 -86.6981 241° Southwest 423 487 38,000  Level Memphis Center
02:58PM 36.5211 -86.8272 242° Southwest 423 487 38,000  Level Memphis Center
02:59PM 36.4642 -86.9586 242° Southwest 428 493 38,000  Level Memphis Center
03:00PM 36.4031 -87.0903 240° Southwest 435 501 38,000  Level Memphis Center
03:01PM 36.3417 -87.2136 238° Southwest 435 501 38,000  Level Memphis Center
03:02PM 36.2844 -87.3394 241° Southwest 435 501 38,000  Level Memphis Center
03:03PM 36.2250 -87.4678 240° Southwest 435 501 38,000  Level Memphis Center
03:04PM 36.1572 -87.6089 239° Southwest 435 501 38,000  Level Memphis Center
03:05PM 36.0975 -87.7394 241° Southwest 440 506 38,000  Level Memphis Center
03:06PM 36.0375 -87.8672 240° Southwest 440 506 38,000  Level Memphis Center
03:07PM 35.9797 -87.9972 241° Southwest 440 506 38,000  Level Memphis Center
03:08PM 35.9175 -88.1297 240° Southwest 445 512 38,000  Level Memphis Center
03:09PM 35.8589 -88.2364 236° Southwest 440 506 38,000  Level Memphis Center
03:10PM 35.7922 -88.3633 237° Southwest 440 506 38,000  Level Memphis Center
03:11PM 35.7211 -88.4878 235° Southwest 445 512 38,000  Level Memphis Center
03:12PM 35.6522 -88.6172 237° Southwest 445 512 38,000  Level Memphis Center
03:13PM 35.5828 -88.7411 235° Southwest 450 518 38,000  Level Memphis Center
03:14PM 35.5097 -88.8828 238° Southwest 445 512 38,000  Level Memphis Center
03:15PM 35.4400 -89.0064 235° Southwest 442 509 38,000  Level Memphis Center
03:16PM 35.3725 -89.1297 236° Southwest 448 516 38,000  Level Memphis Center
03:17PM 35.3028 -89.2553 236° Southwest 443 510 38,000  Level Memphis Center
03:18PM 35.2203 -89.3708 229° Southwest 443 510 38,000  Level Memphis Center
03:19PM 35.1419 -89.4861 230° Southwest 448 516 38,000  Level Memphis Center
03:20PM 35.0717 -89.5858 229° Southwest 448 516 38,000  Level Memphis Center
03:21PM 34.9953 -89.7006 231° Southwest 448 516 38,000  Level Memphis Center
03:22PM 34.8914 -89.8306 226° Southwest 463 533 38,000  Level Memphis Center
03:23PM 34.8106 -89.9600 233° Southwest 470 541 38,000  Level Memphis Center
03:24PM 34.7253 -90.0717 227° Southwest 475 547 38,000  Level Memphis Center
03:25PM 34.6422 -90.1881 229° Southwest 470 541 38,000  Level Memphis Center
03:26PM 34.5567 -90.3042 228° Southwest 464 534 38,000  Level Memphis Center
03:27PM 34.4794 -90.4100 229° Southwest 464 534 38,000  Level Memphis Center
03:28PM 34.3981 -90.5258 230° Southwest 464 534 38,000  Level Memphis Center
03:29PM 34.3122 -90.6414 228° Southwest 464 534 38,000  Level Memphis Center
03:30PM 34.2283 -90.7567 229° Southwest 464 534 38,000  Level Memphis Center
03:31PM 34.1425 -90.8742 229° Southwest 469 540 38,000  Level Memphis Center
03:32PM 34.0542 -90.9914 228° Southwest 464 534 38,000  Level Memphis Center
03:33PM 33.9617 -91.1211 229° Southwest 469 540 38,000  Level Memphis Center
03:34PM 33.8733 -91.2378 228° Southwest 469 540 38,000  Level Memphis Center
03:35PM 33.7953 -91.3394 227° Southwest 464 534 38,000  Level Memphis Center
03:36PM 33.7089 -91.4558 228° Southwest 464 534 38,000  Level Memphis Center
03:37PM 33.6222 -91.5719 228° Southwest 464 534 38,000  Level Memphis Center
03:39PM 33.4119 -91.8619 229° Southwest 463 533 38,000  Level Fort Worth Center
03:40PM 33.3231 -91.9744 227° Southwest 463 533 38,000  Level Fort Worth Center
03:41PM 33.2383 -92.0889 229° Southwest 468 539 38,000  Level Fort Worth Center
03:42PM 33.1492 -92.2058 228° Southwest 468 539 38,000  Level Fort Worth Center
03:43PM 33.0642 -92.3175 228° Southwest 461 531 38,000  Level Fort Worth Center
03:44PM 32.9686 -92.4342 226° Southwest 467 537 38,000  Level Fort Worth Center
03:45PM 32.8833 -92.5478 228° Southwest 467 537 38,000  Level Fort Worth Center
03:46PM 32.7897 -92.6642 226° Southwest 473 544 38,000  Level Fort Worth Center
03:47PM 32.7022 -92.7797 228° Southwest 473 544 38,000  Level Fort Worth Center
03:48PM 32.6103 -92.8956 227° Southwest 478 550 38,000  Level Fort Worth Center
03:49PM 32.5186 -93.0158 228° Southwest 483 556 38,000  Level Fort Worth Center
03:50PM 32.4286 -93.1286 227° Southwest 483 556 38,000  Level Fort Worth Center
03:51PM 32.3364 -93.2458 227° Southwest 483 556 38,000  Level Fort Worth Center
03:52PM 32.2483 -93.3556 227° Southwest 483 556 38,000  Level Fort Worth Center
03:53PM 32.1761 -93.4497 228° Southwest 483 556 38,000  Level Fort Worth Center
03:54PM 32.0781 -93.5839 229° Southwest 489 563 38,000  Level Fort Worth Center
03:55PM 31.9875 -93.7003 227° Southwest 489 563 38,000  Level Fort Worth Center
03:56PM 31.9142 -93.7853 225° Southwest 473 544 38,000  Level Houston Center
03:57PM 31.8069 -93.9189 227° Southwest 472 543 38,000  Level Houston Center
03:58PM 31.6922 -94.0036 212° Southwest 461 531 38,000  Level Houston Center
03:59PM 31.5767 -94.0714 207° Southwest 461 531 38,000  Level Houston Center
04:00PM 31.4636 -94.1358 206° Southwest 452 520 38,000  Level Houston Center
04:01PM 31.3567 -94.2067 209° Southwest 442 509 38,000  Level Houston Center
04:02PM 31.2683 -94.2997 222° Southwest 426 490 38,000  Level Houston Center
04:04PM 31.1811 -94.3928 222° Southwest 421 484 38,000  Level Houston Center
04:05PM 31.0950 -94.4878 223° Southwest 420 483 38,000  Level Houston Center
04:06PM 31.0108 -94.5836 224° Southwest 416 479 38,000  Level Houston Center
04:07PM 30.9278 -94.6822 226° Southwest 419 482 38,000  Level Houston Center
04:08PM 30.8347 -94.8053 229° Southwest 419 482 38,000  Level Houston Center
04:09PM 30.7561 -94.9103 229° Southwest 425 489 38,000  Level Houston Center
04:10PM 30.6772 -95.0150 229° Southwest 428 493 38,000  Level Houston Center
04:11PM 30.5986 -95.1197 229° Southwest 429 494 38,000  Level Houston Center
04:12PM 30.5211 -95.2214 229° Southwest 423 487 38,000  Level Houston Center
04:13PM 30.4436 -95.3250 229° Southwest 423 487 38,000  Level Houston Center
04:14PM 30.3636 -95.4272 228° Southwest 416 479 38,000  Level Houston Center
04:15PM 30.2900 -95.5317 231° Southwest 419 482 38,000  Level Houston Center
04:16PM 30.2197 -95.6719 240° Southwest 424 488 38,000  Level Houston Center
04:17PM 30.1611 -95.7883 240° Southwest 422 486 38,000  Level Houston Center
04:18PM 30.1367 -95.9275 259° West 458 527 38,000  Level Houston Center
04:19PM 30.1186 -96.0700 262° West 440 506 38,000  Level Houston Center
04:20PM 30.1011 -96.2117 262° West 448 516 38,000  Level Houston Center
04:21PM 30.0844 -96.3542 262° West 451 519 38,000 -180 Level Houston Center
04:22PM 30.0683 -96.4947 262° West 447 514 37,700 -1,680 Descending Houston Center
04:23PM 30.0475 -96.6619 262° West 444 511 34,600 -3,000 Descending Houston Center
04:24PM 30.0308 -96.8044 262° West 449 517 31,500 -2,820 Descending Houston Center
04:25PM 30.0133 -96.9472 262° West 453 521 28,800 -2,520 Descending Houston Center
04:26PM 29.9956 -97.0922 262° West 458 527 26,400 -2,580 Descending Houston Center
04:27PM 29.9742 -97.2636 262° West 453 521 23,500 -2,520 Descending Houston Center
04:28PM 29.9567 -97.4006 262° West 439 505 21,200 -2,280 Descending Houston Center
04:29PM 29.9394 -97.5333 262° West 429 494 18,900 -2,340 Descending Houston Center
04:30PM 29.9219 -97.6681 262° West 404 465 16,500 -2,400 Descending Houston Center
04:31PM 29.9053 -97.8033 262° West 397 457 14,000 -1,920 Descending Houston Center
04:32PM 29.8703 -97.9128 250° West 366 421 12,500 -1,500 Descending Houston Center
04:34PM 29.8217 -98.0231 243° Southwest 328 377 10,800 -1,320 Descending Houston Center
04:35PM 29.7864 -98.1044 243° Southwest 310 357 9,800 -1,320 Descending Houston Center
04:36PM 29.7558 -98.1928 248° West 296 341 8,300 -1,560 Descending Houston Center
04:36PM 29.7211 -98.2692 242° Southwest 294 338 6,900 -1,200 Descending Houston Center
04:38PM 29.6858 -98.3650 247° West 277 319 6,000 -840 Descending Houston Center
04:39PM 29.6547 -98.4408 245° Southwest 247 284 5,100 -900 Descending Houston Center
04:40PM 29.6639 -98.5142 278° West 228 262 4,100 -1,020 Descending Houston Center
04:41PM 29.6189 -98.5508 215° Southwest 183 211 3,100 -1,080 Descending Houston Center
04:42PM 29.5772 -98.5319 158° South 144 166 1,900 -960 Descending Houston Center
04:43PM 29.5522 -98.4944 127° Southeast 148 170 1,100 -840 Descending Houston Center
04:45PM 29.5340 -98.4691 221° Southwest  Level Estimated
04:52PM 29.5333 -98.4667 16° North  Level FlightAware Approximate
04:53PM 29.5340 -98.4691 16° North  Level Estimated